Latest Coastal Weather Observations for Proserpine

IDQ60701

Issued at 7:52 am EST Sunday 23 February 2020 (issued every 10 minutes, with the page automatically refreshed every 10 minutes)

About coastal observations | Map of coastal stations | Coastal observations for QLD | Marine services | Other Formats
Station Details ID: 033247 Name: PROSERPINE AIRPORT Lat: -20.49 Lon: 148.56 Height: 19.7 m
Data from the previous 72 hours. | See also: Recent months at Proserpine
Date/Time
EST
Wind Sea
Height
m
Swell Vis
km
Cloud Weather Temp
°C
Press
hPa
Rain since
9am
mm
Dir  Spd
kts
Gust
kts
Height
m
Period
s
Dir
23/07:36am S 7 9 - - - - 10 Partly cloudy - 24.0 1012.0 78.2
23/07:30am S 6 9 - - - - 10 Partly cloudy - 24.2 1012.0 78.2
23/07:00am S 5 7 - - - - 10 Partly cloudy - 23.8 1011.9 78.2
23/06:41am SSE 5 7 - - - - 10 Partly cloudy - 23.7 1011.7 78.2
23/06:30am S 6 7 - - - - 10 Partly cloudy - 23.6 1011.5 78.2
23/06:17am SSE 7 9 - - - - 10 Partly cloudy - 23.6 1011.5 78.2
23/06:00am SSE 8 10 - - - - 10 Cloudy Rain 23.7 1011.4 77.4
23/05:31am S 7 9 - - - - 10 Partly cloudy - 23.7 1011.3 76.0
23/05:30am S 7 9 - - - - 10 Partly cloudy - 23.7 1011.3 75.8
23/05:29am S 7 9 - - - - 10 Partly cloudy - 23.8 1011.3 75.8
23/05:11am SSW 3 5 - - - - 5 Partly cloudy - 23.8 1011.3 73.2
23/05:08am S 4 5 - - - - 6 Partly cloudy - 23.8 1011.2 73.0
23/05:00am S 4 6 - - - - 10 Partly cloudy - 23.8 1011.3 71.8
23/04:40am S 5 6 - - - - 8 Partly cloudy - 23.9 1011.3 70.0
23/04:30am SSW 4 6 - - - - 6 Partly cloudy - 23.8 1011.3 69.0
23/04:04am N 5 7 - - - - 2 Partly cloudy - 23.6 1011.2 62.6
23/04:00am NE 4 6 - - - - 2 Partly cloudy - 23.7 1011.3 60.0
23/03:42am ENE 5 7 - - - - 6 Partly cloudy - 23.9 1011.3 49.2
23/03:30am ESE 5 7 - - - - 10 Partly cloudy - 24.0 1011.2 47.8
23/03:18am ESE 6 10 - - - - 10 Partly cloudy - 24.1 1011.1 47.6
23/03:10am ESE 7 10 - - - - 10 Partly cloudy - 24.1 1011.1 47.6
23/03:00am E 6 10 - - - - 3 Cloudy Rain 24.1 1011.0 47.2
23/02:53am E 5 7 - - - - 6 Partly cloudy - 24.2 1010.9 45.4
23/02:39am E 5 8 - - - - 10 Partly cloudy - 24.1 1011.1 44.2
23/02:30am ESE 5 8 - - - - 7 Partly cloudy - 24.2 1011.1 44.0
23/02:00am SSE 7 9 - - - - 3 Partly cloudy - 24.1 1011.2 33.6
23/01:44am SSE 6 8 - - - - 6 Partly cloudy - 24.1 1011.2 29.4
23/01:43am SSE 6 9 - - - - 7 Partly cloudy - 24.2 1011.2 29.2
23/01:30am SSE 8 10 - - - - 5 Partly cloudy - 24.2 1011.3 28.8
23/01:23am SSE 7 9 - - - - 6 Partly cloudy - 24.3 1011.4 28.6
23/01:02am S 7 8 - - - - 10 Partly cloudy - 24.3 1011.7 27.8
23/01:00am S 7 8 - - - - 10 Partly cloudy - 24.2 1011.7 27.8
23/12:30am SSE 6 7 - - - - 10 Partly cloudy - 24.0 1012.1 27.6
23/12:06am SE 7 10 - - - - 9 Partly cloudy - 24.1 1012.3 27.2
23/12:00am SE 7 9 - - - - 8 Cloudy Rain 24.1 1012.5 26.8
 
Date/Time
EST
Wind Sea
Height
m
Swell Vis
km
Cloud Weather Temp
°C
Press
hPa
Rain since
9am
mm
Dir  Spd
kts
Gust
kts
Height
m
Period
s
Dir
22/11:39pm E 10 13 - - - - 3 Partly cloudy - 23.7 1013.0 24.4
22/11:30pm E 13 20 - - - - 3 Partly cloudy - 23.8 1013.0 22.2
22/11:07pm ESE 15 23 - - - - 6 Partly cloudy - 24.2 1012.8 10.4
22/11:00pm ESE 16 21 - - - - 10 Partly cloudy - 24.5 1012.7 9.4
22/10:47pm ESE 15 22 - - - - 10 Partly cloudy - 24.8 1012.6 9.4
22/10:30pm SE 13 17 - - - - 4 Partly cloudy - 24.9 1012.5 9.4
22/10:06pm E 7 13 - - - - 6 Partly cloudy - 25.3 1012.7 2.2
22/10:00pm E 7 9 - - - - 10 Partly cloudy - 25.6 1012.7 0.2
22/09:49pm E 9 15 - - - - 10 Partly cloudy - 25.9 1012.7 0.0
22/09:30pm ESE 12 18 - - - - 10 Partly cloudy - 26.1 1012.3 0.0
22/09:08pm ESE 12 15 - - - - 10 Partly cloudy - 26.4 1011.8 0.0
22/09:00pm ESE 13 18 - - - - 10 Cloudy Rain 26.4 1011.6 0.0
22/08:39pm SE 9 13 - - - - 10 Partly cloudy - 26.8 1011.5 0.0
22/08:30pm SSW 7 12 - - - - 10 Partly cloudy - 25.9 1011.4 0.0
22/08:00pm W 3 6 - - - - 10 Partly cloudy - 26.3 1011.0 0.0
22/07:30pm NW 5 6 - - - - 10 Partly cloudy - 26.8 1010.5 0.0
22/07:00pm E 5 6 - - - - 10 - - 28.1 1010.3 0.0
22/06:30pm E 5 7 - - - - 10 - - 28.5 1010.0 0.0
22/06:00pm E 6 8 - - - - 10 Cloudy - 28.9 1009.8 0.0
22/05:30pm E 5 7 - - - - 10 - - 29.2 1009.8 0.0
22/05:00pm E 4 6 - - - - 10 - - 29.5 1009.8 0.0
22/04:30pm ENE 7 9 - - - - 10 - - 29.4 1009.4 0.0
22/04:00pm E 9 14 - - - - 10 - - 29.9 1009.3 0.0
22/03:30pm E 9 14 - - - - 10 - - 30.2 1009.3 0.0
22/03:00pm E 10 16 - - - - 10 Cloudy - 30.5 1009.5 0.0
22/02:30pm SE 10 13 - - - - 10 - - 30.3 1009.8 0.0
22/02:00pm ESE 10 17 - - - - 10 Partly cloudy - 30.4 1010.1 0.0
22/01:30pm ESE 12 17 - - - - 10 Partly cloudy - 30.5 1010.5 0.0
22/01:00pm ESE 13 18 - - - - 10 - - 31.0 1010.7 0.0
22/12:30pm E 16 27 - - - - 10 Partly cloudy - 29.4 1011.2 0.0
22/12:26pm E 15 27 - - - - 10 Partly cloudy - 29.8 1011.2 0.0
22/12:00pm ESE 12 16 - - - - 10 Partly cloudy - 32.1 1011.5 0.0
22/11:30am E 13 18 - - - - 10 Partly cloudy - 31.9 1011.7 0.0
22/11:00am E 13 20 - - - - 10 Partly cloudy - 32.3 1012.1 0.0
22/10:30am E 12 16 - - - - 10 Partly cloudy - 32.3 1012.5 0.0
22/10:00am E 10 16 - - - - 10 Partly cloudy - 31.2 1012.5 0.0
22/09:30am E 11 15 - - - - 10 Partly cloudy - 31.3 1012.3 0.0
22/09:00am ENE 8 10 - - - - 10 Cloudy - 30.7 1012.2 0.0
22/08:30am E 7 10 - - - - 10 Partly cloudy - 30.0 1011.8 0.0
22/08:00am E 4 6 - - - - 10 Partly cloudy - 29.2 1011.7 0.0
22/07:30am SE 1 4 - - - - 10 Partly cloudy - 27.7 1011.5 0.0
22/07:00am SSW 5 7 - - - - 10 Partly cloudy - 26.2 1010.9 0.0
22/06:30am SSW 5 6 - - - - 10 Partly cloudy - 25.2 1010.7 0.0
22/06:00am SW 3 4 - - - - 10 - - 24.9 1010.5 0.0
22/05:30am SSW 4 5 - - - - 10 - - 25.0 1010.1 0.0
22/05:00am SSW 4 4 - - - - 10 Partly cloudy - 25.3 1010.0 0.0
22/04:30am SSW 2 4 - - - - 10 Partly cloudy - 25.3 1009.9 0.0
22/04:00am SW 3 4 - - - - 10 Partly cloudy - 25.5 1010.0 0.0
22/03:30am SSW 5 5 - - - - 10 - - 25.6 1010.0 0.0
22/03:00am CALM 0 0 - - - - 10 - - 25.9 1010.0 0.0
22/02:30am CALM 0 0 - - - - 10 - - 26.2 1010.1 0.0
22/02:00am CALM 0 0 - - - - 10 - - 26.4 1010.4 0.0
22/01:30am CALM 0 0 - - - - 10 Partly cloudy - 26.5 1010.9 0.0
22/01:00am CALM 0 0 - - - - 10 - - 26.8 1011.1 0.0
22/12:30am CALM 0 0 - - - - 10 Partly cloudy - 26.9 1011.3 0.0
22/12:00am CALM 0 0 - - - - 10 Mostly cloudy - 26.8 1011.5 0.0
 
Date/Time
EST
Wind Sea
Height
m
Swell Vis
km
Cloud Weather Temp
°C
Press
hPa
Rain since
9am
mm
Dir  Spd
kts
Gust
kts
Height
m
Period
s
Dir
21/11:30pm CALM 0 0 - - - - 10 - - 26.9 1011.7 0.0
21/11:00pm CALM 0 0 - - - - 10 - - 27.0 1011.7 0.0
21/10:30pm SE 3 4 - - - - 10 - - 27.2 1011.8 0.0
21/10:00pm CALM 0 2 - - - - 10 - - 27.5 1011.6 0.0
21/09:30pm ESE 3 4 - - - - 10 - - 27.3 1011.3 0.0
21/09:00pm E 3 5 - - - - 10 Mostly cloudy - 27.5 1011.1 0.0
21/08:30pm CALM 0 0 - - - - 10 - - 27.7 1011.0 0.0
21/08:00pm E 3 5 - - - - 10 - - 27.6 1010.4 0.0
21/07:30pm ENE 4 6 - - - - 10 - - 27.6 1009.7 0.0
21/07:00pm E 5 7 - - - - 10 - - 28.4 1009.4 0.0
21/06:30pm E 8 10 - - - - 10 - - 29.0 1009.1 0.0
21/06:00pm E 6 9 - - - - 10 - - 29.5 1008.8 0.0
21/05:30pm ESE 7 9 - - - - 10 - - 29.6 1008.6 0.0
21/05:00pm ESE 10 14 - - - - 10 - - 30.1 1008.3 0.0
21/04:30pm ESE 10 12 - - - - 10 - - 31.0 1008.1 0.0
21/04:00pm E 11 16 - - - - 10 Partly cloudy - 30.7 1008.0 0.0
21/03:30pm E 11 17 - - - - 10 Partly cloudy - 31.9 1008.1 0.0
21/03:00pm E 10 14 - - - - 10 Mostly clear - 32.8 1008.2 0.0
21/02:30pm E 11 15 - - - - 10 Partly cloudy - 32.3 1008.5 0.0
21/02:00pm ESE 10 17 - - - - 10 Partly cloudy - 32.6 1008.7 0.0
21/01:30pm ESE 10 15 - - - - 10 Partly cloudy - 32.9 1009.1 0.0
21/01:00pm ESE 10 14 - - - - 10 - - 32.4 1009.4 0.0
21/12:30pm ESE 13 18 - - - - 10 Partly cloudy - 32.2 1009.7 0.0
21/12:00pm ESE 11 16 - - - - 10 Mostly clear - 32.9 1009.9 0.0
21/11:30am SE 12 16 - - - - 10 Partly cloudy - 31.2 1010.2 0.0
21/11:00am ESE 10 13 - - - - 10 Partly cloudy - 31.7 1010.4 0.0
21/10:30am ESE 8 12 - - - - 10 Partly cloudy - 31.7 1010.3 0.0
21/10:00am E 4 7 - - - - 10 Partly cloudy - 30.3 1010.3 0.0
21/09:30am ENE 6 9 - - - - 10 Partly cloudy - 31.1 1010.2 0.0
21/09:00am E 5 6 - - - - 10 Mostly clear - 30.0 1010.1 0.0
21/08:30am ESE 5 7 - - - - 10 - - 29.8 1010.0 0.0
21/08:00am SE 4 6 - - - - 10 - - 28.7 1009.8 0.0
21/07:30am SSW 3 4 - - - - 10 - - 27.3 1009.7 0.0
21/07:00am SSW 3 5 - - - - 10 - - 25.6 1009.3 0.0
21/06:30am SW 2 3 - - - - 10 - - 25.0 1009.0 0.0
21/06:00am SSW 2 4 - - - - 10 - - 24.8 1008.7 0.0
21/05:30am CALM 0 0 - - - - 10 - - 24.9 1008.3 0.0
21/05:00am CALM 0 2 - - - - 10 - - 25.1 1008.0 0.0
21/04:30am CALM 0 0 - - - - 10 - - 25.2 1008.0 0.0
21/04:00am CALM 0 0 - - - - 10 - - 25.3 1008.0 0.0
21/03:30am CALM 0 0 - - - - 10 - - 25.5 1007.8 0.0
21/03:00am CALM 0 0 - - - - 10 - - 25.5 1007.8 0.0
21/02:30am CALM 0 0 - - - - 10 - - 25.5 1007.8 0.0
21/02:00am CALM 0 0 - - - - 10 - - 25.9 1007.8 0.0
21/01:30am CALM 0 0 - - - - 10 - - 25.9 1008.3 0.0
21/01:00am WNW 2 4 - - - - 10 - - 25.8 1008.8 0.0
21/12:30am W 2 4 - - - - 10 - - 26.0 1009.3 0.0
21/12:00am CALM 0 0 - - - - 10 - - 26.2 1009.4 0.0
 
Date/Time
EST
Wind Sea
Height
m
Swell Vis
km
Cloud Weather Temp
°C
Press
hPa
Rain since
9am
mm
Dir  Spd
kts
Gust
kts
Height
m
Period
s
Dir
20/11:30pm WNW 2 4 - - - - 10 - - 26.2 1009.6 0.0
20/11:00pm CALM 0 0 - - - - 10 - - 26.4 1009.5 0.0
20/10:30pm SW 1 3 - - - - 10 - - 26.5 1009.6 0.0
20/10:00pm CALM 0 0 - - - - 10 - - 26.6 1009.4 0.0
20/09:30pm W 2 3 - - - - 10 - - 26.6 1009.1 0.0
20/09:00pm S 3 4 - - - - 10 - - 26.8 1008.8 0.0
20/08:30pm S 1 3 - - - - 10 - - 27.3 1007.9 0.0
20/08:00pm CALM 0 0 - - - - 10 - - 27.6 1007.7 0.0
20/07:30pm N 1 4 - - - - 10 - - 27.8 1007.1 0.0
20/07:00pm N 4 6 - - - - 10 - - 28.1 1006.7 0.0
20/06:30pm NNE 6 7 - - - - 10 - - 28.8 1006.3 0.0
20/06:00pm N 5 7 - - - - 10 - - 29.7 1006.1 0.0
20/05:30pm NNE 4 6 - - - - 10 - - 30.7 1005.5 0.0
20/05:00pm ESE 9 11 - - - - 10 - - 31.3 1005.1 0.0
20/04:30pm ESE 7 10 - - - - 10 - - 31.8 1004.9 0.0
20/04:00pm ESE 7 10 - - - - 10 - - 32.4 1004.7 0.0
20/03:30pm E 8 12 - - - - 10 - - 33.5 1004.9 0.0
20/03:00pm ENE 7 10 - - - - 10 - - 33.8 1005.0 0.0
20/02:30pm E 8 11 - - - - 10 - - 33.5 1005.2 0.0
20/02:00pm E 9 12 - - - - 10 - - 33.3 1005.7 0.0
20/01:30pm ENE 8 13 - - - - 10 Partly cloudy - 33.2 1006.0 0.0
20/01:00pm E 5 9 - - - - 10 Partly cloudy - 32.3 1006.3 0.0
20/12:30pm E 3 6 - - - - 10 Partly cloudy - 33.1 1006.7 0.0
20/12:00pm NE 5 8 - - - - 10 Partly cloudy - 32.1 1007.1 0.0
20/11:30am E 4 6 - - - - 10 Partly cloudy - 32.9 1007.2 0.0
20/11:00am W 3 6 - - - - 10 Partly cloudy - 32.5 1007.5 0.0
20/10:30am WNW 4 6 - - - - 10 Partly cloudy - 31.7 1007.7 0.0
20/10:00am W 2 5 - - - - 10 Partly cloudy - 31.0 1008.0 0.0
20/09:30am N 4 7 - - - - 10 Partly cloudy - 29.8 1008.0 0.0
20/09:00am WNW 1 5 - - - - 10 Mostly clear - 29.8 1008.1 0.0
20/08:30am N 1 4 - - - - 10 - - 29.4 1007.9 0.0
20/08:00am SSW 3 5 - - - - 10 - - 28.3 1007.7 0.0

Other formats

Comma delimited format used in spreadsheet applications
http://www.bom.gov.au/fwo/IDQ60701/IDQ60701.94365.axf

JavaScript Object Notation format (JSON) in row-major order
http://www.bom.gov.au/fwo/IDQ60701/IDQ60701.94365.json

Data quality

Most of these data are generated automatically and are frequently updated. Quality checks on data are not normally performed. It is possible for incorrect values to appear. Refer to information at About Latest Weather Observations and please check the disclaimer before using these data.